Time;durP1;ratioP1;P1;durP2;ratioP2;P2;SDS_P1;SDS_P2;PMS_P1;PMS_P2;Temp;Humidity;BMP_temperature;BMP_pressure;BME280_temperature;BME280_humidity;BME280_pressure;Samples;Min_cycle;Max_cycle;Signal;HPM_P1;HPM_P2
2022/01/17 00:02:25;;;;;;;25.93;18.10;;;6.10;99.90;;;;;;5075062;28;20458;-71
2022/01/17 00:04:55;;;;;;;29.03;18.60;;;6.10;99.90;;;;;;5075729;28;20553;-72
2022/01/17 00:07:21;;;;;;;26.03;18.10;;;6.10;99.90;;;;;;5074694;28;20458;-72
2022/01/17 00:09:49;;;;;;;25.10;16.77;;;6.10;99.90;;;;;;5075381;28;20750;-71
2022/01/17 00:12:16;;;;;;;29.43;17.43;;;6.10;99.90;;;;;;5074096;28;20457;-71
2022/01/17 00:14:43;;;;;;;25.57;16.43;;;6.10;99.90;;;;;;5074788;28;20465;-70
2022/01/17 00:17:27;;;;;;;24.83;16.00;;;6.10;99.90;;;;;;5074717;28;20454;-71
2022/01/17 00:19:55;;;;;;;23.53;16.10;;;6.10;99.90;;;;;;5075007;28;20438;-72
2022/01/17 00:22:23;;;;;;;22.47;13.70;;;6.20;99.90;;;;;;5074625;28;20485;-70
2022/01/17 00:24:54;;;;;;;27.30;14.10;;;6.20;99.90;;;;;;5074450;28;20488;-71
2022/01/17 00:27:20;;;;;;;22.27;13.13;;;6.20;99.90;;;;;;5074487;28;20467;-72
2022/01/17 00:29:47;;;;;;;21.17;14.07;;;6.20;99.90;;;;;;5074633;28;20462;-71
2022/01/17 00:32:14;;;;;;;23.73;13.40;;;6.20;99.90;;;;;;5074638;28;20572;-72
2022/01/17 00:34:40;;;;;;;21.73;13.50;;;6.30;99.90;;;;;;5074370;28;20453;-71
2022/01/17 00:37:07;;;;;;;16.20;11.70;;;6.30;99.90;;;;;;5075222;28;20941;-72
2022/01/17 00:39:34;;;;;;;24.17;11.87;;;6.30;99.90;;;;;;5074605;28;20454;-72
2022/01/17 00:42:02;;;;;;;18.27;11.00;;;6.30;99.90;;;;;;5074818;28;20454;-71
2022/01/17 00:44:28;;;;;;;20.50;10.90;;;6.40;99.90;;;;;;5076147;28;20949;-71
2022/01/17 00:46:55;;;;;;;19.40;11.40;;;6.40;99.90;;;;;;5078035;28;20493;-72
2022/01/17 00:49:22;;;;;;;14.47;10.73;;;6.40;99.90;;;;;;5078272;28;20751;-71
2022/01/17 00:51:49;;;;;;;14.73;9.70;;;6.40;99.90;;;;;;5079611;28;20470;-72
2022/01/17 00:54:16;;;;;;;13.63;9.73;;;6.50;99.90;;;;;;5081152;28;20454;-71
2022/01/17 00:56:43;;;;;;;19.07;11.20;;;6.50;99.90;;;;;;5079395;28;20465;-71
2022/01/17 00:59:11;;;;;;;15.10;9.60;;;6.50;99.90;;;;;;5080326;28;20504;-71
2022/01/17 01:01:37;;;;;;;20.07;10.47;;;6.50;99.90;;;;;;5080612;28;20834;-72
2022/01/17 01:04:04;;;;;;;12.93;9.60;;;6.50;99.90;;;;;;5080016;28;20524;-72
2022/01/17 01:06:31;;;;;;;14.40;9.53;;;6.50;99.90;;;;;;5079269;28;20458;-71
2022/01/17 01:09:00;;;;;;;17.17;9.33;;;6.50;99.90;;;;;;5078064;28;20869;-71
2022/01/17 01:11:27;;;;;;;14.40;8.77;;;6.50;99.90;;;;;;5078467;28;21020;-71
2022/01/17 01:13:54;;;;;;;16.07;10.30;;;6.50;99.90;;;;;;5077633;28;20764;-72
2022/01/17 01:16:24;;;;;;;14.67;9.00;;;6.60;99.90;;;;;;5077557;28;20458;-72
2022/01/17 01:19:08;;;;;;;15.90;9.20;;;6.60;99.90;;;;;;5076803;28;20958;-72
2022/01/17 01:21:46;;;;;;;15.17;9.63;;;6.60;99.90;;;;;;5077567;28;20473;-71
2022/01/17 01:29:48;;;;;;;13.13;9.37;;;6.60;99.90;;;;;;5076877;28;20520;-72
2022/01/17 01:32:20;;;;;;;12.93;8.10;;;6.60;99.90;;;;;;5077256;28;20778;-70
2022/01/17 01:34:51;;;;;;;10.07;7.27;;;6.70;99.90;;;;;;5077345;28;20453;-71
2022/01/17 01:37:18;;;;;;;10.90;7.00;;;6.70;99.90;;;;;;5077653;28;20442;-71
2022/01/17 01:39:46;;;;;;;10.97;5.97;;;6.60;99.90;;;;;;5076999;28;20478;-73
2022/01/17 01:42:15;;;;;;;7.03;5.20;;;6.60;99.90;;;;;;5077447;28;20455;-71
2022/01/17 01:44:43;;;;;;;12.30;6.40;;;6.60;99.90;;;;;;5077768;28;20454;-72
2022/01/17 01:47:09;;;;;;;6.53;4.70;;;6.60;99.90;;;;;;5077225;28;20542;-71
2022/01/17 01:49:38;;;;;;;6.40;4.50;;;6.60;99.90;;;;;;5077975;28;20439;-71
2022/01/17 01:52:05;;;;;;;6.47;4.20;;;6.50;99.90;;;;;;5077801;28;20459;-72
2022/01/17 01:54:32;;;;;;;6.10;3.00;;;6.50;99.90;;;;;;5076918;28;20454;-72
2022/01/17 01:56:59;;;;;;;10.27;3.77;;;6.50;99.90;;;;;;5077165;28;20465;-71
2022/01/17 01:59:26;;;;;;;4.57;2.93;;;6.50;99.90;;;;;;5076819;28;20808;-71
2022/01/17 02:01:53;;;;;;;5.20;2.50;;;6.50;99.90;;;;;;5076611;28;20511;-71
2022/01/17 02:04:19;;;;;;;7.30;2.83;;;6.30;99.90;;;;;;5076607;28;20451;-71
2022/01/17 02:06:48;;;;;;;9.97;2.63;;;6.20;99.90;;;;;;5076448;28;20841;-72
2022/01/17 02:09:14;;;;;;;5.30;2.10;;;6.00;99.90;;;;;;5076209;28;20903;-72
2022/01/17 02:11:41;;;;;;;3.50;2.17;;;5.80;99.90;;;;;;5076242;28;20469;-73
2022/01/17 02:14:08;;;;;;;11.37;4.70;;;5.70;99.90;;;;;;5076432;28;20461;-73
2022/01/17 02:16:37;;;;;;;7.33;2.33;;;5.60;99.90;;;;;;5076095;28;20469;-72
2022/01/17 02:19:04;;;;;;;6.60;2.00;;;5.50;99.90;;;;;;5076147;28;20988;-72
2022/01/17 02:21:45;;;;;;;6.03;1.80;;;5.50;99.90;;;;;;5075911;28;20462;-73
2022/01/17 02:24:14;;;;;;;15.33;2.27;;;5.50;99.90;;;;;;5076022;28;20537;-72
2022/01/17 02:26:41;;;;;;;3.50;1.53;;;5.50;99.90;;;;;;5075842;28;20926;-71
2022/01/17 02:29:08;;;;;;;5.50;1.87;;;5.50;99.90;;;;;;5076131;28;20507;-72
2022/01/17 02:31:35;;;;;;;4.97;1.47;;;5.60;99.90;;;;;;5075950;28;20789;-72
2022/01/17 02:34:03;;;;;;;5.97;1.73;;;5.60;99.90;;;;;;5075949;28;20458;-73
2022/01/17 02:36:32;;;;;;;13.03;2.20;;;5.70;99.90;;;;;;5075684;28;20497;-72
2022/01/17 02:38:59;;;;;;;4.00;1.60;;;5.80;99.90;;;;;;5075707;28;20474;-72
2022/01/17 02:41:29;;;;;;;6.50;2.00;;;5.90;99.90;;;;;;5075670;28;20454;-74
2022/01/17 02:43:56;;;;;;;4.53;1.50;;;5.90;99.90;;;;;;5075645;28;20907;-70
2022/01/17 02:46:26;;;;;;;3.57;1.63;;;6.00;99.90;;;;;;5075430;28;20930;-71
2022/01/17 02:48:55;;;;;;;4.00;1.30;;;6.00;99.90;;;;;;5075191;28;20584;-71
2022/01/17 02:51:21;;;;;;;5.70;1.43;;;6.10;99.90;;;;;;5075643;28;20468;-72
2022/01/17 02:53:50;;;;;;;9.03;1.63;;;6.10;99.90;;;;;;5075051;28;20454;-71
2022/01/17 02:56:17;;;;;;;5.50;1.70;;;6.10;99.90;;;;;;5075463;28;20545;-72
2022/01/17 02:58:44;;;;;;;4.70;1.43;;;6.10;99.90;;;;;;5074882;28;20478;-71
2022/01/17 03:01:13;;;;;;;7.10;1.80;;;6.20;99.90;;;;;;5075427;28;20779;-72
2022/01/17 03:03:41;;;;;;;8.13;2.17;;;6.20;99.90;;;;;;5075546;28;20469;-72
2022/01/17 03:06:08;;;;;;;4.53;1.57;;;6.20;99.90;;;;;;5074792;28;20494;-71
2022/01/17 03:08:36;;;;;;;6.30;1.73;;;6.20;99.90;;;;;;5074827;28;20454;-72
2022/01/17 03:11:07;;;;;;;12.87;2.73;;;6.20;99.90;;;;;;5075017;28;20451;-71
2022/01/17 03:13:36;;;;;;;2.80;1.47;;;6.20;99.90;;;;;;5075156;28;20462;-71
2022/01/17 03:16:09;;;;;;;6.83;1.60;;;6.20;99.90;;;;;;5075215;28;20561;-71
2022/01/17 03:18:39;;;;;;;10.23;1.57;;;6.20;99.90;;;;;;5075258;28;20551;-71
2022/01/17 03:21:06;;;;;;;5.10;1.20;;;6.30;99.90;;;;;;5074751;28;20469;-71
2022/01/17 03:23:33;;;;;;;6.87;1.83;;;6.20;99.90;;;;;;5074939;28;20941;-72
2022/01/17 03:26:03;;;;;;;6.53;1.63;;;6.20;99.90;;;;;;5075469;28;20923;-71
2022/01/17 03:28:31;;;;;;;6.33;1.87;;;6.30;99.90;;;;;;5075231;28;20454;-71
2022/01/17 03:30:58;;;;;;;5.27;1.80;;;6.30;99.90;;;;;;5075205;28;20461;-72
2022/01/17 03:33:25;;;;;;;9.00;1.60;;;6.30;99.90;;;;;;5075160;28;20536;-71
2022/01/17 03:35:52;;;;;;;3.90;1.43;;;6.30;99.90;;;;;;5075445;28;20465;-72
2022/01/17 03:38:21;;;;;;;8.73;2.10;;;6.30;99.90;;;;;;5075272;28;20504;-72
2022/01/17 03:40:50;;;;;;;7.17;1.60;;;6.20;99.90;;;;;;5074942;28;20469;-72
2022/01/17 03:43:17;;;;;;;4.30;1.03;;;6.30;99.90;;;;;;5074883;28;20458;-72
2022/01/17 03:45:46;;;;;;;6.27;1.57;;;6.30;99.90;;;;;;5074673;28;20515;-72
2022/01/17 03:48:14;;;;;;;10.30;1.97;;;6.20;99.90;;;;;;5074416;28;20482;-71
2022/01/17 03:50:41;;;;;;;7.23;1.23;;;6.20;99.90;;;;;;5074633;28;20459;-71
2022/01/17 03:53:07;;;;;;;5.93;1.80;;;6.20;99.90;;;;;;5075197;28;20783;-72
2022/01/17 03:55:34;;;;;;;7.93;1.87;;;6.20;99.90;;;;;;5074821;28;20822;-72
2022/01/17 03:58:01;;;;;;;6.17;1.40;;;6.20;99.90;;;;;;5075932;28;20464;-72
2022/01/17 04:00:31;;;;;;;9.70;1.60;;;6.20;99.90;;;;;;5074561;28;20516;-72
2022/01/17 04:03:00;;;;;;;6.67;1.93;;;6.30;99.90;;;;;;5074694;28;20459;-72
2022/01/17 04:05:27;;;;;;;8.20;1.60;;;6.30;99.90;;;;;;5074726;28;20454;-73
2022/01/17 04:07:54;;;;;;;5.43;1.97;;;6.30;99.90;;;;;;5074189;28;20931;-72
2022/01/17 04:10:21;;;;;;;8.23;1.70;;;6.30;99.90;;;;;;5074631;28;20476;-72
2022/01/17 04:12:48;;;;;;;10.13;1.87;;;6.30;99.90;;;;;;5074512;28;20454;-72
2022/01/17 04:15:15;;;;;;;6.60;1.43;;;6.30;99.90;;;;;;5074547;28;20780;-72
2022/01/17 04:17:43;;;;;;;6.37;1.83;;;6.30;99.90;;;;;;5074689;28;20466;-73
2022/01/17 04:20:16;;;;;;;4.47;1.70;;;6.40;99.90;;;;;;5078822;28;20954;-72
2022/01/17 04:22:51;;;;;;;12.37;1.73;;;6.40;99.90;;;;;;5078827;28;20434;-72
2022/01/17 04:25:18;;;;;;;12.77;1.90;;;6.30;99.90;;;;;;5079293;28;20510;-72
2022/01/17 04:27:46;;;;;;;10.03;1.87;;;6.30;99.90;;;;;;5078969;28;20465;-72
2022/01/17 04:30:14;;;;;;;8.13;1.90;;;6.30;99.90;;;;;;5078675;28;20454;-72
2022/01/17 04:32:41;;;;;;;7.33;2.00;;;6.30;99.90;;;;;;5078840;28;20768;-71
2022/01/17 04:35:09;;;;;;;5.63;1.40;;;6.20;99.90;;;;;;5078247;28;20490;-71
2022/01/17 04:37:37;;;;;;;9.17;1.87;;;6.30;99.90;;;;;;5078192;28;20454;-72
2022/01/17 04:40:06;;;;;;;8.77;2.17;;;6.20;99.90;;;;;;5077517;28;20484;-72
2022/01/17 04:42:33;;;;;;;3.73;1.50;;;6.20;99.90;;;;;;5077680;28;20945;-72
2022/01/17 04:45:10;;;;;;;12.73;2.77;;;6.20;99.90;;;;;;5077584;28;20454;-72
2022/01/17 04:47:39;;;;;;;7.57;1.57;;;6.20;99.90;;;;;;5077962;28;20485;-72
2022/01/17 04:50:07;;;;;;;10.30;2.07;;;6.20;99.90;;;;;;5078202;28;20759;-71
2022/01/17 04:52:35;;;;;;;5.93;1.97;;;6.20;99.90;;;;;;5078534;28;20462;-71
2022/01/17 04:55:04;;;;;;;4.87;1.50;;;6.20;99.90;;;;;;5078198;28;20472;-72
2022/01/17 04:57:31;;;;;;;14.43;2.17;;;6.20;99.90;;;;;;5077998;28;20775;-72
2022/01/17 04:59:58;;;;;;;4.97;1.70;;;6.20;99.90;;;;;;5078486;28;20490;-72
2022/01/17 05:02:25;;;;;;;6.93;1.97;;;6.20;99.90;;;;;;5078474;28;20450;-72
2022/01/17 05:04:52;;;;;;;8.67;2.17;;;6.20;99.90;;;;;;5077553;28;20472;-73
2022/01/17 05:07:19;;;;;;;6.77;1.47;;;6.10;99.90;;;;;;5077724;28;20468;-71
2022/01/17 05:09:47;;;;;;;12.43;2.13;;;6.00;99.90;;;;;;5077649;28;20450;-71
2022/01/17 05:12:15;;;;;;;7.57;1.60;;;6.00;99.90;;;;;;5077694;28;20458;-72
2022/01/17 05:14:46;;;;;;;12.70;2.13;;;6.00;99.90;;;;;;5078413;28;20462;-72
2022/01/17 05:17:34;;;;;;;7.17;1.60;;;6.10;99.90;;;;;;5077819;28;20520;-72
2022/01/17 05:20:01;;;;;;;6.47;1.70;;;6.10;99.90;;;;;;5077382;28;20467;-72
2022/01/17 05:22:32;;;;;;;7.00;2.03;;;6.20;99.90;;;;;;5077453;28;20485;-72
2022/01/17 05:24:59;;;;;;;5.23;1.80;;;6.20;99.90;;;;;;5076926;28;20879;-72
2022/01/17 05:27:28;;;;;;;5.53;1.67;;;6.20;99.90;;;;;;5077299;28;20465;-72
2022/01/17 05:29:54;;;;;;;7.87;2.10;;;6.20;99.90;;;;;;5076324;28;20477;-72
2022/01/17 05:32:21;;;;;;;9.00;2.03;;;6.20;99.90;;;;;;5077166;28;20477;-72
2022/01/17 05:34:48;;;;;;;5.77;2.33;;;6.20;99.90;;;;;;5076905;28;20473;-72
2022/01/17 05:37:15;;;;;;;8.60;2.07;;;6.20;99.90;;;;;;5076755;28;20465;-72
2022/01/17 05:39:43;;;;;;;9.20;2.57;;;6.20;99.90;;;;;;5076975;28;20482;-72
2022/01/17 05:42:14;;;;;;;6.93;2.00;;;6.30;99.90;;;;;;5076964;28;20489;-72
2022/01/17 05:44:42;;;;;;;12.17;2.40;;;6.30;99.90;;;;;;5076773;28;20450;-72
2022/01/17 05:47:09;;;;;;;8.80;2.33;;;6.30;99.90;;;;;;5076587;28;20482;-72
2022/01/17 05:49:36;;;;;;;3.97;1.53;;;6.30;99.90;;;;;;5076860;28;20922;-72
2022/01/17 05:52:04;;;;;;;3.90;1.57;;;6.30;99.90;;;;;;5076851;28;20580;-72
2022/01/17 05:54:31;;;;;;;4.30;1.53;;;6.30;99.90;;;;;;5076866;28;21007;-72
2022/01/17 05:56:57;;;;;;;3.47;1.40;;;6.30;99.90;;;;;;5077027;28;20875;-72
2022/01/17 05:59:24;;;;;;;9.60;1.90;;;6.30;99.90;;;;;;5076750;28;20482;-73
2022/01/17 06:01:52;;;;;;;4.57;1.90;;;6.30;99.90;;;;;;5076613;28;20454;-72
2022/01/17 06:04:20;;;;;;;6.90;1.83;;;6.30;99.90;;;;;;5076935;28;20767;-72
2022/01/17 06:06:47;;;;;;;5.27;1.50;;;6.30;99.90;;;;;;5076711;28;20462;-72
2022/01/17 06:09:14;;;;;;;8.57;1.97;;;6.30;99.90;;;;;;5076760;28;20455;-73
2022/01/17 06:11:41;;;;;;;8.40;2.47;;;6.30;99.90;;;;;;5075819;28;20763;-73
2022/01/17 06:14:09;;;;;;;4.80;1.83;;;6.30;99.90;;;;;;5075904;28;20735;-72
2022/01/17 06:16:36;;;;;;;6.87;1.60;;;6.30;99.90;;;;;;5075511;28;20938;-72
2022/01/17 06:19:04;;;;;;;10.97;1.90;;;6.20;99.90;;;;;;5075959;28;20462;-72
2022/01/17 06:21:31;;;;;;;5.77;2.70;;;6.20;99.90;;;;;;5075610;28;20470;-72
2022/01/17 06:24:00;;;;;;;8.97;1.70;;;6.10;99.90;;;;;;5075879;28;20458;-72
2022/01/17 06:26:27;;;;;;;5.97;2.37;;;6.10;99.90;;;;;;5075648;28;20454;-72
2022/01/17 06:28:54;;;;;;;7.40;2.70;;;6.00;99.90;;;;;;5075448;28;20484;-72
2022/01/17 06:31:21;;;;;;;7.30;1.90;;;5.90;99.90;;;;;;5075443;28;20785;-71
2022/01/17 06:33:47;;;;;;;4.27;1.97;;;5.90;99.90;;;;;;5075460;28;20517;-71
2022/01/17 06:36:15;;;;;;;10.27;2.10;;;5.80;99.90;;;;;;5075338;28;20465;-72
2022/01/17 06:38:42;;;;;;;3.93;1.60;;;5.80;99.90;;;;;;5075123;28;20469;-72
2022/01/17 06:41:09;;;;;;;10.40;2.53;;;5.80;99.90;;;;;;5074417;28;20585;-75
2022/01/17 06:43:36;;;;;;;5.70;1.80;;;5.70;99.90;;;;;;5074544;28;20469;-72
2022/01/17 06:46:02;;;;;;;7.17;2.70;;;5.70;99.90;;;;;;5074678;28;20454;-72
2022/01/17 06:48:29;;;;;;;7.40;1.90;;;5.70;99.90;;;;;;5074368;28;20482;-73
2022/01/17 06:50:56;;;;;;;8.20;2.43;;;5.60;99.90;;;;;;5074539;28;20465;-72
2022/01/17 06:53:27;;;;;;;7.80;2.40;;;5.60;99.90;;;;;;5074561;28;20496;-72
2022/01/17 06:55:54;;;;;;;5.87;1.90;;;5.60;99.90;;;;;;5074309;28;20512;-72
2022/01/17 06:58:21;;;;;;;6.03;1.90;;;5.60;99.90;;;;;;5074288;28;20458;-71
2022/01/17 07:00:47;;;;;;;8.03;2.60;;;5.50;99.90;;;;;;5074563;28;20490;-72
2022/01/17 07:03:15;;;;;;;7.00;2.33;;;5.50;99.90;;;;;;5074461;28;20474;-73
2022/01/17 07:05:42;;;;;;;3.73;2.50;;;5.40;99.90;;;;;;5074150;28;20537;-73
2022/01/17 07:08:08;;;;;;;5.50;2.23;;;5.40;99.90;;;;;;5074343;28;20481;-73
2022/01/17 07:10:36;;;;;;;6.50;3.17;;;5.40;99.90;;;;;;5074207;28;20454;-73
2022/01/17 07:13:03;;;;;;;9.33;2.03;;;5.40;99.90;;;;;;5074896;28;20458;-72
2022/01/17 07:15:30;;;;;;;7.47;1.73;;;5.40;99.90;;;;;;5074050;28;20454;-73
2022/01/17 07:17:57;;;;;;;3.90;2.17;;;5.40;99.90;;;;;;5074531;28;20454;-72
2022/01/17 07:20:23;;;;;;;8.70;2.37;;;5.40;99.90;;;;;;5074694;28;20539;-72
2022/01/17 07:22:50;;;;;;;3.00;1.70;;;5.40;99.90;;;;;;5075103;28;20458;-72
2022/01/17 07:25:17;;;;;;;3.93;2.00;;;5.40;99.90;;;;;;5074683;28;20455;-73
2022/01/17 07:27:45;;;;;;;5.93;2.43;;;5.40;99.90;;;;;;5075587;28;20458;-73
2022/01/17 07:30:12;;;;;;;7.83;2.07;;;5.40;99.90;;;;;;5076583;28;20786;-73
2022/01/17 07:32:39;;;;;;;8.03;2.37;;;5.40;99.90;;;;;;5077224;28;20477;-72
2022/01/17 07:35:07;;;;;;;8.13;2.47;;;5.40;99.90;;;;;;5075837;28;20458;-71
2022/01/17 07:37:34;;;;;;;5.60;1.90;;;5.40;99.90;;;;;;5076156;28;20465;-73
2022/01/17 07:40:03;;;;;;;9.40;2.57;;;5.40;99.90;;;;;;5076135;28;20478;-73
2022/01/17 07:42:32;;;;;;;9.97;2.30;;;5.40;99.90;;;;;;5075157;28;20759;-72
2022/01/17 07:45:09;;;;;;;6.13;2.07;;;5.40;99.90;;;;;;5074942;28;20489;-72
2022/01/17 07:47:42;;;;;;;13.97;3.40;;;5.50;99.90;;;;;;5074630;28;20576;-72
2022/01/17 07:50:13;;;;;;;6.93;1.90;;;5.50;99.90;;;;;;5074305;28;20917;-72
2022/01/17 07:52:40;;;;;;;7.10;2.17;;;5.50;99.90;;;;;;5074140;28;20442;-71
2022/01/17 07:55:07;;;;;;;7.37;2.00;;;5.60;99.90;;;;;;5074634;28;20484;-72
2022/01/17 07:57:34;;;;;;;13.00;2.23;;;5.60;99.90;;;;;;5074487;28;20782;-72
2022/01/17 08:00:02;;;;;;;6.63;2.20;;;5.60;99.90;;;;;;5074413;28;20516;-71
2022/01/17 08:02:32;;;;;;;5.73;1.83;;;5.70;99.90;;;;;;5074864;28;20495;-72
2022/01/17 08:04:59;;;;;;;7.50;2.53;;;5.70;99.90;;;;;;5074916;28;20454;-73
2022/01/17 08:07:26;;;;;;;5.70;2.10;;;5.70;99.90;;;;;;5074534;28;20759;-73
2022/01/17 08:09:52;;;;;;;4.13;2.50;;;5.70;99.90;;;;;;5074244;28;20465;-72
2022/01/17 08:12:19;;;;;;;7.97;1.87;;;5.60;99.90;;;;;;5074042;28;20458;-72
2022/01/17 08:14:46;;;;;;;9.40;3.10;;;5.70;99.90;;;;;;5074529;28;20485;-72
2022/01/17 08:17:14;;;;;;;5.43;1.90;;;5.70;99.90;;;;;;5074120;28;20458;-72
2022/01/17 08:19:41;;;;;;;4.57;1.80;;;5.70;99.90;;;;;;5075111;28;20821;-72
2022/01/17 08:22:08;;;;;;;6.07;2.40;;;5.70;99.90;;;;;;5074469;28;20454;-72
2022/01/17 08:24:35;;;;;;;3.67;1.90;;;5.70;99.90;;;;;;5074005;28;20549;-72
2022/01/17 08:27:05;;;;;;;2.73;2.10;;;5.70;99.90;;;;;;5074280;28;20926;-73
2022/01/17 08:29:34;;;;;;;7.70;2.00;;;5.70;99.90;;;;;;5074451;28;20462;-73
2022/01/17 08:32:05;;;;;;;6.63;1.97;;;5.70;99.90;;;;;;5075059;28;20465;-72
2022/01/17 08:34:33;;;;;;;6.03;1.83;;;5.70;99.90;;;;;;5075148;28;20994;-72
2022/01/17 08:37:00;;;;;;;3.80;1.80;;;5.70;99.90;;;;;;5074966;28;20454;-71
2022/01/17 08:39:27;;;;;;;3.43;2.13;;;5.70;99.90;;;;;;5074633;28;20462;-71
2022/01/17 08:41:54;;;;;;;5.20;1.77;;;5.80;99.90;;;;;;5074530;28;20481;-71
2022/01/17 08:44:23;;;;;;;7.50;2.23;;;5.80;99.90;;;;;;5074180;28;20462;-71
2022/01/17 08:46:50;;;;;;;2.57;1.67;;;5.80;99.90;;;;;;5074049;28;20500;-72
2022/01/17 08:49:17;;;;;;;8.43;2.07;;;5.80;99.90;;;;;;5074632;28;20481;-71
2022/01/17 08:51:46;;;;;;;5.40;2.40;;;5.80;99.90;;;;;;5074624;28;20529;-72
2022/01/17 08:54:14;;;;;;;3.00;1.47;;;5.90;99.90;;;;;;5075092;28;20454;-74
2022/01/17 08:56:41;;;;;;;5.03;1.93;;;5.90;99.90;;;;;;5074940;28;20454;-73
2022/01/17 08:59:07;;;;;;;4.60;2.00;;;5.90;99.90;;;;;;5074665;28;20458;-75
2022/01/17 09:01:34;;;;;;;5.23;1.70;;;6.00;99.90;;;;;;5074180;28;20807;-71
2022/01/17 09:04:02;;;;;;;2.87;1.80;;;6.00;99.90;;;;;;5073818;28;20458;-71
2022/01/17 09:06:30;;;;;;;3.10;1.60;;;6.10;99.90;;;;;;5077291;28;20469;-72
2022/01/17 09:08:58;;;;;;;3.33;1.33;;;6.10;99.90;;;;;;5077305;28;20989;-72
2022/01/17 09:11:25;;;;;;;7.07;2.23;;;6.10;99.90;;;;;;5077608;28;20564;-72
2022/01/17 09:13:52;;;;;;;4.27;1.70;;;6.10;99.90;;;;;;5077759;28;20497;-71
2022/01/17 09:16:18;;;;;;;2.33;1.40;;;6.00;99.90;;;;;;5077633;28;20458;-71
2022/01/17 09:18:45;;;;;;;3.73;1.70;;;6.00;99.90;;;;;;5077732;28;20454;-71
2022/01/17 09:21:12;;;;;;;3.20;1.50;;;6.10;99.90;;;;;;5076751;28;20508;-71
2022/01/17 09:23:39;;;;;;;2.30;1.40;;;6.00;99.90;;;;;;5077396;28;20841;-71
2022/01/17 09:26:07;;;;;;;4.87;1.90;;;6.00;99.90;;;;;;5077104;28;20462;-70
2022/01/17 09:28:36;;;;;;;5.50;1.40;;;6.00;99.90;;;;;;5077168;28;20469;-72
2022/01/17 09:31:03;;;;;;;1.60;1.00;;;6.00;99.90;;;;;;5076660;28;20478;-73
2022/01/17 09:33:30;;;;;;;6.80;2.17;;;6.00;99.90;;;;;;5077058;28;20545;-72
2022/01/17 09:35:57;;;;;;;3.53;1.47;;;6.00;99.90;;;;;;5076667;28;20933;-73
2022/01/17 09:38:23;;;;;;;2.40;1.57;;;6.00;99.90;;;;;;5077078;28;20474;-72
2022/01/17 09:40:50;;;;;;;5.10;2.10;;;6.00;99.90;;;;;;5076882;28;20474;-72
2022/01/17 09:43:20;;;;;;;7.10;2.00;;;6.10;99.90;;;;;;5077037;28;20515;-71
2022/01/17 09:45:47;;;;;;;4.80;1.60;;;6.10;99.90;;;;;;5077116;28;20473;-71
2022/01/17 09:48:19;;;;;;;4.40;1.80;;;6.20;99.90;;;;;;5076573;28;20497;-71
2022/01/17 09:50:58;;;;;;;2.60;1.40;;;6.20;99.90;;;;;;5076726;28;20910;-72
2022/01/17 09:53:28;;;;;;;1.70;1.07;;;6.20;99.90;;;;;;5077259;28;20909;-73
2022/01/17 09:55:58;;;;;;;6.90;1.23;;;5.90;99.90;;;;;;5077852;28;20454;-72
2022/01/17 09:58:27;;;;;;;3.40;1.60;;;5.70;99.90;;;;;;5078883;28;20458;-72
2022/01/17 10:00:54;;;;;;;5.57;1.27;;;5.60;99.90;;;;;;5078230;28;20493;-72
2022/01/17 10:03:21;;;;;;;3.83;1.00;;;5.60;99.90;;;;;;5080510;28;20530;-73
2022/01/17 10:05:49;;;;;;;3.63;1.63;;;5.60;99.90;;;;;;5079297;28;20952;-73
2022/01/17 10:08:19;;;;;;;1.70;1.13;;;5.60;99.90;;;;;;5079249;28;20514;-73
2022/01/17 10:10:50;;;;;;;4.73;1.00;;;5.60;99.90;;;;;;5078921;28;20434;-73
2022/01/17 10:13:23;;;;;;;3.20;1.50;;;5.70;99.90;;;;;;5078578;28;20933;-72
2022/01/17 10:16:08;;;;;;;10.47;5.93;;;5.80;99.90;;;;;;5079413;28;20438;-72
2022/01/17 10:18:41;;;;;;;5.93;1.60;;;5.80;99.90;;;;;;5078583;28;20442;-73
2022/01/17 10:21:12;;;;;;;3.43;1.60;;;5.90;99.90;;;;;;5077240;28;20528;-71
2022/01/17 10:29:35;;;;;;;4.73;1.60;;;6.10;99.90;;;;;;5065722;28;20454;-73
2022/01/17 10:34:56;;;;;;;4.33;1.30;;;6.30;99.90;;;;;;5077025;28;20538;-73
2022/01/17 10:37:25;;;;;;;3.43;1.20;;;6.30;99.90;;;;;;5077214;28;20438;-72
2022/01/17 10:39:57;;;;;;;6.03;1.50;;;6.40;99.90;;;;;;5075852;28;20484;-72
2022/01/17 10:42:26;;;;;;;4.70;1.53;;;6.40;99.90;;;;;;5075944;28;20509;-72
2022/01/17 10:44:55;;;;;;;4.20;2.17;;;6.40;99.90;;;;;;5076563;28;20525;-72
2022/01/17 10:47:26;;;;;;;8.07;1.87;;;6.40;99.90;;;;;;5075497;28;20482;-72
2022/01/17 10:49:56;;;;;;;6.30;1.73;;;6.50;99.90;;;;;;5075622;28;20453;-72
2022/01/17 10:52:32;;;;;;;4.90;1.77;;;6.50;99.90;;;;;;5075684;28;20451;-72
2022/01/17 10:55:04;;;;;;;3.77;1.30;;;6.60;99.90;;;;;;5075603;28;20458;-72
2022/01/17 10:57:35;;;;;;;11.33;2.00;;;6.50;99.90;;;;;;5075625;28;20455;-71
2022/01/17 11:00:04;;;;;;;6.60;1.43;;;6.40;99.90;;;;;;5075064;28;20914;-71
2022/01/17 11:02:32;;;;;;;4.47;1.33;;;6.20;99.90;;;;;;5075094;28;20478;-72
2022/01/17 11:05:04;;;;;;;4.40;1.40;;;6.10;99.90;;;;;;5075459;28;20465;-72
2022/01/17 11:07:30;;;;;;;5.07;1.80;;;6.10;99.90;;;;;;5074772;28;20733;-72
2022/01/17 11:10:01;;;;;;;2.43;1.50;;;6.00;99.90;;;;;;5075058;28;20541;-71
2022/01/17 11:12:30;;;;;;;2.70;1.20;;;5.90;99.90;;;;;;5075322;28;20461;-72
2022/01/17 11:14:57;;;;;;;4.20;2.00;;;5.80;99.90;;;;;;5074988;28;20469;-72
2022/01/17 11:17:33;;;;;;;5.43;1.50;;;5.60;99.90;;;;;;5074750;28;20549;-71
2022/01/17 11:20:06;;;;;;;2.90;1.30;;;5.40;99.90;;;;;;5075083;28;20504;-73
2022/01/17 11:22:35;;;;;;;5.67;2.30;;;5.10;99.90;;;;;;5074917;28;20830;-71
2022/01/17 11:25:03;;;;;;;6.07;1.80;;;4.90;99.90;;;;;;5074390;28;20454;-72
2022/01/17 11:27:34;;;;;;;5.90;1.90;;;4.70;99.90;;;;;;5074372;28;20791;-70
2022/01/17 11:30:01;;;;;;;6.10;2.00;;;4.60;99.90;;;;;;5074658;28;20914;-70
2022/01/17 11:32:28;;;;;;;7.60;2.60;;;4.50;99.90;;;;;;5077346;28;20465;-70
2022/01/17 11:34:58;;;;;;;4.57;2.07;;;4.30;99.90;;;;;;5074634;28;20458;-71
2022/01/17 11:37:28;;;;;;;8.53;2.27;;;4.20;99.90;;;;;;5075029;28;20469;-71
2022/01/17 11:39:57;;;;;;;5.87;2.30;;;4.10;99.90;;;;;;5074880;28;20458;-72
2022/01/17 11:42:34;;;;;;;12.23;2.10;;;4.00;99.90;;;;;;5074752;28;20485;-71
2022/01/17 11:45:03;;;;;;;5.50;1.50;;;4.00;99.90;;;;;;5074822;28;20450;-71
2022/01/17 11:47:50;;;;;;;5.80;1.97;;;4.00;99.90;;;;;;5075002;28;20478;-71
2022/01/17 11:50:42;;;;;;;7.73;2.30;;;3.90;99.90;;;;;;5075224;28;20454;-71
2022/01/17 11:53:48;;;;;;;9.40;2.10;;;3.90;99.90;;;;;;5075657;28;20534;-72
2022/01/17 11:56:38;;;;;;;7.40;2.00;;;3.90;99.90;;;;;;5076144;28;20489;-70
2022/01/17 11:59:24;;;;;;;8.33;2.13;;;3.90;99.90;;;;;;5075348;28;20446;-71
2022/01/17 12:02:14;;;;;;;4.67;1.70;;;3.90;99.90;;;;;;5074407;28;20458;-71
2022/01/17 12:04:41;;;;;;;5.67;2.27;;;3.90;99.90;;;;;;5076578;28;20872;-72
2022/01/17 12:07:07;;;;;;;4.07;1.70;;;3.90;99.90;;;;;;5074889;28;20461;-72
2022/01/17 12:09:39;;;;;;;6.77;1.77;;;3.90;99.90;;;;;;5074448;28;20458;-72
2022/01/17 12:12:15;;;;;;;6.60;1.60;;;3.90;99.90;;;;;;5074486;28;20434;-72
2022/01/17 12:14:52;;;;;;;10.23;2.27;;;3.90;99.90;;;;;;5074402;28;20441;-72
2022/01/17 12:17:29;;;;;;;6.60;1.73;;;4.00;99.90;;;;;;5073975;28;20438;-72
2022/01/17 12:20:19;;;;;;;5.90;1.87;;;4.00;99.90;;;;;;5074178;28;20464;-72
2022/01/17 12:22:57;;;;;;;2.70;1.13;;;4.00;99.90;;;;;;5074391;28;20795;-72
2022/01/17 12:25:34;;;;;;;6.07;1.77;;;4.10;99.90;;;;;;5074676;28;20743;-72
2022/01/17 12:28:27;;;;;;;14.90;1.90;;;4.20;99.90;;;;;;5074591;28;20465;-72
2022/01/17 12:30:56;;;;;;;9.00;2.00;;;4.30;99.90;;;;;;5074789;28;20519;-73
2022/01/17 12:33:37;;;;;;;3.67;1.50;;;4.40;99.90;;;;;;5074429;28;20556;-72
2022/01/17 12:36:07;;;;;;;6.40;2.07;;;4.40;99.90;;;;;;5074763;28;20569;-72
2022/01/17 12:38:37;;;;;;;4.37;1.63;;;4.50;99.90;;;;;;5074573;28;20458;-72
2022/01/17 12:41:05;;;;;;;4.00;1.97;;;4.50;99.90;;;;;;5078460;28;20458;-73
2022/01/17 12:43:35;;;;;;;4.17;1.33;;;4.60;99.90;;;;;;5078730;28;20469;-73
2022/01/17 12:46:04;;;;;;;2.80;1.73;;;4.60;99.90;;;;;;5078995;28;20484;-73
2022/01/17 12:48:33;;;;;;;6.50;1.90;;;4.60;99.90;;;;;;5078846;28;20517;-73
2022/01/17 12:51:03;;;;;;;6.33;2.10;;;4.70;99.90;;;;;;5079047;28;20780;-76
2022/01/17 12:53:30;;;;;;;3.20;1.77;;;4.70;99.90;;;;;;5079637;28;20492;-73
2022/01/17 12:55:59;;;;;;;5.00;1.60;;;4.80;99.90;;;;;;5078236;28;20465;-72
2022/01/17 12:58:33;;;;;;;5.60;2.67;;;4.80;99.90;;;;;;5078223;28;20571;-72
2022/01/17 13:01:03;;;;;;;4.60;1.67;;;4.90;99.90;;;;;;5078081;28;20469;-72
2022/01/17 13:03:33;;;;;;;6.60;1.70;;;4.90;99.90;;;;;;5078029;28;20442;-73
2022/01/17 13:06:01;;;;;;;3.90;1.73;;;5.00;99.90;;;;;;5078167;28;20484;-72
2022/01/17 13:08:28;;;;;;;4.37;2.00;;;5.00;99.90;;;;;;5079417;28;20454;-72
2022/01/17 13:10:57;;;;;;;4.93;1.60;;;5.00;99.90;;;;;;5077804;28;20490;-74
2022/01/17 13:13:24;;;;;;;6.60;1.73;;;5.10;99.90;;;;;;5078324;28;20992;-72
2022/01/17 13:16:00;;;;;;;6.20;2.10;;;5.10;99.90;;;;;;5077937;28;20473;-73
2022/01/17 13:18:32;;;;;;;6.73;2.40;;;5.00;99.90;;;;;;5077457;28;20898;-72
2022/01/17 13:21:01;;;;;;;5.20;1.70;;;5.00;99.90;;;;;;5078111;28;20879;-73